Montevallo, AL

3:02 AM CST on February 07, 2016 (GMT -0600)
Country Hills | | Change Station
CLOSE
Current Station
Personal Weather Station
Location: Montevallo, AL
Elevation: 512 ft
Nearby Weather Stations

Elev 512 ft 33.16 °N, 86.82 °W | Updated 11 minutes ago

Clear
Clear
29.8 °F
Feels Like 30 °F
N
0.0
Wind Variable Wind from ESE

Today
High -- | Low -- °F
--% Chance of Precip.
Yesterday
High -- | Low -- °F
Precip. -- in
Pressure 30.22 in
Visibility 10.0 miles
Clouds Clear
Windchill 30 °F
Dew Point 22 °F
Humidity 72%
Rainfall 0.00 in
Snow Depth Not available.
6:38 AM 5:24 PM
Waning Crescent, 2% visible
METAR KEET 070853Z AUTO 33003KT 10SM CLR 02/M06 A3021 RMK AO2 SLP232 T00221061 56013
Pressure 30.22 in
Visibility 10.0 miles
Clouds Clear
Windchill 30 °F
Dew Point 22 °F
Humidity 72%
Rainfall 0.00 in
Snow Depth Not available.
6:38 AM 5:24 PM
Waning Crescent, 2% visible
METAR KEET 070853Z AUTO 33003KT 10SM CLR 02/M06 A3021 RMK AO2 SLP232 T00221061 56013

10-Day Weather Forecast

Almanac

Astronomy

Feb. 07, 2016 Rise Set
Actual Time
Civil Twilight
Nautical Twilight
Astronomical Twilight
Moon
Length of Visible Light
Length of Day
Tomorrow will be .
, % of the Moon is Illuminated

Today's Extremes

State Highs State Lows

Community

WunderPhotos

Upload Photos

1,891,171 photos uploaded!

WunderBlog® & News

Nearby

Air Quality

  Air Quality AQ Index Pollutant
Not available.

Snow Depth

Station Depth Elevation

Earthquake Activity

City Distance Mag. Time & Date
Minimum magnitude displayed is 2.5.

Coastal Water Temperatures

Place Temperature

Stations

Nearby Weather Stations

Station Location Temp. Windchill Dew Point Humidity Wind Precip. Elev Updated Type
                   

Watches & Warnings

There are currently no watches in effect.